Time;durP1;ratioP1;P1;durP2;ratioP2;P2;SDS_P1;SDS_P2;PMS_P1;PMS_P2;Temp;Humidity;BMP_temperature;BMP_pressure;BME280_temperature;BME280_humidity;BME280_pressure;Samples;Min_cycle;Max_cycle;Signal;HPM_P1;HPM_P2
2022/05/08 00:00:26;;;;;;;6.88;4.03;;;18.20;51.10;;;;;;5064753;28;20075;-73
2022/05/08 00:02:55;;;;;;;2.92;1.73;;;18.40;51.40;;;;;;5071793;28;20038;-72
2022/05/08 00:05:23;;;;;;;3.42;1.20;;;18.30;51.50;;;;;;5071314;28;20039;-74
2022/05/08 00:07:50;;;;;;;1.92;0.90;;;18.30;52.00;;;;;;5070706;28;20024;-72
2022/05/08 00:10:18;;;;;;;3.15;1.25;;;18.70;51.10;;;;;;5058797;28;20056;-72
2022/05/08 00:12:45;;;;;;;2.55;0.85;;;19.20;50.10;;;;;;5066285;28;20031;-73
2022/05/08 00:15:12;;;;;;;3.13;1.10;;;19.40;49.00;;;;;;5064898;28;20071;-74
2022/05/08 00:17:39;;;;;;;2.83;1.10;;;19.30;48.40;;;;;;5058954;28;20025;-73
2022/05/08 00:20:08;;;;;;;2.13;1.00;;;19.20;50.10;;;;;;5067146;28;20480;-72
2022/05/08 00:22:35;;;;;;;3.10;1.10;;;19.30;49.90;;;;;;5067062;28;20078;-72
2022/05/08 00:25:03;;;;;;;2.65;1.40;;;19.20;49.60;;;;;;5063873;28;20090;-73
2022/05/08 00:27:31;;;;;;;1.85;1.10;;;19.20;49.30;;;;;;5063450;28;20390;-72
2022/05/08 00:29:58;;;;;;;1.52;0.90;;;19.30;50.70;;;;;;5066658;28;20032;-72
2022/05/08 00:32:25;;;;;;;2.05;0.90;;;19.60;50.20;;;;;;5083551;28;20375;-74
2022/05/08 00:34:53;;;;;;;3.17;0.90;;;19.70;49.20;;;;;;5064548;28;20052;-72
2022/05/08 00:37:20;;;;;;;3.20;0.90;;;20.10;48.30;;;;;;5063169;28;20029;-72
2022/05/08 00:39:47;;;;;;;3.45;0.95;;;20.30;48.70;;;;;;5065079;28;20150;-71
2022/05/08 00:42:18;;;;;;;3.70;1.10;;;20.80;46.30;;;;;;5058488;28;20076;-71
2022/05/08 00:44:45;;;;;;;2.00;0.70;;;20.90;46.50;;;;;;5064094;28;20032;-71
2022/05/08 00:47:12;;;;;;;3.22;0.70;;;21.10;45.00;;;;;;5063387;28;20083;-72
2022/05/08 00:49:39;;;;;;;1.85;0.73;;;21.30;44.90;;;;;;5059061;28;20040;-72
2022/05/08 00:52:11;;;;;;;3.97;0.65;;;21.40;43.50;;;;;;5058157;28;20021;-74
2022/05/08 00:54:39;;;;;;;9.73;6.82;;;21.70;45.40;;;;;;5065973;28;20474;-73
2022/05/08 00:57:10;;;;;;;10.55;6.95;;;22.00;41.70;;;;;;5070957;28;20044;-72
2022/05/08 00:59:37;;;;;;;1.30;0.50;;;22.00;43.00;;;;;;5069707;28;20107;-71
2022/05/08 01:02:05;;;;;;;0.95;0.40;;;21.80;41.20;;;;;;5057036;28;20395;-73
2022/05/08 01:04:32;;;;;;;3.17;0.40;;;21.80;41.00;;;;;;5067243;28;20047;-73
2022/05/08 01:06:59;;;;;;;0.45;0.20;;;21.90;42.90;;;;;;5060778;28;20021;-73
2022/05/08 01:09:27;;;;;;;3.88;0.80;;;22.20;41.70;;;;;;5056248;28;20032;-72
2022/05/08 01:11:55;;;;;;;1.85;0.30;;;22.00;40.80;;;;;;5068505;28;20078;-72
2022/05/08 01:14:22;;;;;;;1.48;0.45;;;22.20;42.50;;;;;;5059287;28;20083;-71
2022/05/08 01:16:49;;;;;;;1.85;0.30;;;21.80;40.90;;;;;;5070507;28;20020;-72
2022/05/08 01:19:17;;;;;;;1.85;0.50;;;21.70;42.30;;;;;;5062775;28;20047;-73
2022/05/08 01:21:44;;;;;;;2.55;0.43;;;21.90;42.10;;;;;;5060508;28;20029;-72
2022/05/08 01:24:20;;;;;;;1.45;0.57;;;22.10;42.40;;;;;;5053455;28;20405;-72
2022/05/08 01:26:48;;;;;;;5.65;0.65;;;22.40;41.00;;;;;;5042786;28;20026;-74
2022/05/08 01:29:17;;;;;;;6.18;1.23;;;22.70;42.00;;;;;;5071734;28;20037;-71
2022/05/08 01:31:44;;;;;;;1.77;0.40;;;23.10;39.80;;;;;;5066609;28;20025;-73
2022/05/08 01:34:11;;;;;;;1.42;0.30;;;22.80;39.90;;;;;;5060789;28;20037;-71
2022/05/08 01:36:41;;;;;;;3.97;0.38;;;22.80;40.70;;;;;;5072659;28;20482;-72
2022/05/08 01:39:08;;;;;;;3.33;0.40;;;22.80;39.00;;;;;;5067976;28;20077;-72
2022/05/08 01:41:36;;;;;;;0.90;0.22;;;22.50;40.70;;;;;;5071208;28;20069;-71
2022/05/08 01:44:04;;;;;;;0.95;0.40;;;22.50;40.80;;;;;;5068144;28;20032;-71
2022/05/08 01:46:33;;;;;;;0.95;0.43;;;22.80;40.00;;;;;;5065077;28;20029;-71
2022/05/08 01:49:00;;;;;;;1.55;0.40;;;22.70;39.30;;;;;;5063934;28;20068;-71
2022/05/08 01:51:27;;;;;;;1.10;0.35;;;22.20;40.20;;;;;;5064845;28;20103;-71
2022/05/08 01:53:55;;;;;;;1.40;0.50;;;22.20;40.40;;;;;;5059123;28;20036;-71
2022/05/08 01:56:22;;;;;;;0.50;0.13;;;22.40;40.80;;;;;;5062396;28;20037;-72
2022/05/08 01:58:49;;;;;;;1.50;0.20;;;22.60;40.40;;;;;;5068920;28;20486;-71
2022/05/08 02:01:17;;;;;;;1.88;0.40;;;22.90;38.90;;;;;;5065397;28;20157;-71
2022/05/08 02:03:45;;;;;;;2.30;0.30;;;22.90;39.10;;;;;;5073862;28;20044;-72
2022/05/08 02:06:13;;;;;;;1.15;0.30;;;22.90;39.40;;;;;;5073804;28;20386;-72
2022/05/08 02:08:41;;;;;;;1.60;0.20;;;23.20;39.70;;;;;;5064093;28;20036;-72
2022/05/08 02:11:09;;;;;;;1.83;0.30;;;23.30;38.50;;;;;;5057883;28;20083;-71
2022/05/08 02:13:36;;;;;;;1.50;0.50;;;23.50;39.00;;;;;;5065373;28;20474;-71
2022/05/08 02:16:04;;;;;;;1.13;0.30;;;23.80;37.70;;;;;;5050187;28;20042;-72
2022/05/08 02:18:31;;;;;;;6.15;2.20;;;23.90;36.70;;;;;;5064259;28;20032;-72
2022/05/08 02:20:58;;;;;;;4.03;1.83;;;23.90;35.50;;;;;;5073387;28;20521;-72
2022/05/08 02:23:28;;;;;;;0.88;0.43;;;24.10;37.70;;;;;;5068702;28;20376;-73
2022/05/08 02:25:59;;;;;;;1.20;0.60;;;24.40;37.00;;;;;;5073442;28;20103;-72
2022/05/08 02:28:29;;;;;;;3.22;1.02;;;24.60;36.00;;;;;;5054040;28;20382;-72
2022/05/08 02:30:56;;;;;;;2.17;0.28;;;24.70;35.90;;;;;;5063445;28;20028;-72
2022/05/08 02:33:23;;;;;;;1.58;0.47;;;24.40;34.70;;;;;;5063272;28;20032;-73
2022/05/08 02:35:50;;;;;;;0.50;0.30;;;24.10;35.90;;;;;;5072878;28;20025;-72
2022/05/08 02:38:17;;;;;;;2.63;0.40;;;24.00;36.90;;;;;;5074402;28;20158;-72
2022/05/08 02:40:45;;;;;;;0.82;0.32;;;24.00;36.80;;;;;;5068143;28;20028;-73
2022/05/08 02:43:14;;;;;;;1.50;0.40;;;24.20;37.50;;;;;;5085311;28;20032;-73
2022/05/08 02:45:41;;;;;;;2.22;0.43;;;24.50;36.50;;;;;;5073138;28;20024;-73
2022/05/08 02:48:09;;;;;;;0.73;0.20;;;24.50;36.20;;;;;;5074103;28;20035;-73
2022/05/08 02:50:36;;;;;;;1.80;0.40;;;24.40;36.30;;;;;;5070032;28;20025;-73
2022/05/08 02:53:04;;;;;;;5.47;0.57;;;24.60;37.30;;;;;;5070671;28;20031;-71
2022/05/08 02:58:35;;;;;;;3.88;0.68;;;24.60;35.30;;;;;;5073534;28;20150;-73
2022/05/08 03:01:05;;;;;;;3.20;0.50;;;24.00;36.70;;;;;;5073363;28;20024;-74
2022/05/08 03:03:32;;;;;;;1.35;0.45;;;24.20;37.10;;;;;;5074188;28;20025;-73
2022/05/08 03:06:00;;;;;;;2.70;0.43;;;24.60;37.00;;;;;;5074201;28;20478;-74
2022/05/08 03:08:30;;;;;;;1.90;0.25;;;24.80;36.50;;;;;;5073156;28;20035;-71
2022/05/08 03:13:46;;;;;;;1.05;0.40;;;24.70;35.20;;;;;;5074065;28;20067;-73
2022/05/08 03:16:13;;;;;;;0.80;0.20;;;24.90;34.70;;;;;;5074007;28;20029;-72
2022/05/08 03:18:40;;;;;;;0.95;0.20;;;24.80;35.60;;;;;;5070668;28;20053;-72
2022/05/08 03:21:08;;;;;;;1.05;0.30;;;24.80;36.40;;;;;;5064411;28;20470;-71
2022/05/08 03:23:36;;;;;;;0.80;0.20;;;24.70;34.60;;;;;;5073823;28;20394;-73
2022/05/08 03:26:04;;;;;;;2.50;0.47;;;24.70;36.20;;;;;;5067968;28;20017;-74
2022/05/08 03:28:31;;;;;;;1.50;0.30;;;24.60;36.50;;;;;;5072516;28;20103;-74
2022/05/08 03:30:59;;;;;;;0.65;0.20;;;24.40;36.40;;;;;;5073089;28;20546;-73
2022/05/08 03:33:33;;;;;;;0.68;0.30;;;24.90;37.50;;;;;;5072066;28;20424;-72
2022/05/08 03:36:00;;;;;;;1.27;0.52;;;24.60;36.60;;;;;;5042484;28;20025;-73
2022/05/08 03:38:28;;;;;;;6.55;1.17;;;24.70;36.50;;;;;;5072470;28;20486;-73
2022/05/08 03:40:55;;;;;;;2.83;0.25;;;24.90;35.90;;;;;;5072103;28;20545;-73
2022/05/08 03:43:23;;;;;;;0.80;0.20;;;25.50;35.60;;;;;;5045638;28;20414;-73
2022/05/08 03:45:50;;;;;;;2.85;0.50;;;25.20;35.90;;;;;;5072849;28;20497;-72
2022/05/08 03:48:18;;;;;;;0.70;0.40;;;25.30;35.30;;;;;;5069171;28;20028;-72
2022/05/08 03:50:45;;;;;;;0.60;0.25;;;25.40;34.30;;;;;;5073243;28;20032;-72
2022/05/08 03:53:13;;;;;;;1.27;0.35;;;24.90;35.10;;;;;;5064268;28;20029;-72
2022/05/08 03:55:40;;;;;;;2.17;0.22;;;24.90;35.30;;;;;;5072058;28;20024;-72
2022/05/08 03:58:07;;;;;;;2.88;0.45;;;24.80;35.40;;;;;;5072659;28;20118;-73
2022/05/08 04:00:34;;;;;;;0.77;0.30;;;24.50;36.90;;;;;;5072642;28;20036;-72
2022/05/08 04:03:02;;;;;;;1.30;0.40;;;24.50;36.30;;;;;;5064369;28;20039;-72
2022/05/08 04:05:29;;;;;;;1.50;0.50;;;24.40;36.20;;;;;;5063253;28;20415;-72
2022/05/08 04:07:56;;;;;;;10.32;7.07;;;24.70;36.20;;;;;;5063499;28;20025;-73
2022/05/08 04:10:23;;;;;;;4.55;2.88;;;25.10;36.60;;;;;;5063674;28;20037;-72
2022/05/08 04:12:51;;;;;;;0.77;0.30;;;25.20;35.20;;;;;;5063406;28;20044;-72
2022/05/08 04:18:03;;;;;;;0.40;0.20;;;25.30;35.50;;;;;;5069494;28;20078;-71
2022/05/08 04:20:30;;;;;;;2.47;0.55;;;25.40;34.70;;;;;;5062456;28;20486;-73
2022/05/08 04:25:43;;;;;;;1.52;0.65;;;25.20;35.30;;;;;;5074466;28;20071;-72
2022/05/08 04:28:11;;;;;;;0.30;0.20;;;25.10;35.00;;;;;;5063678;28;20035;-74
2022/05/08 04:30:40;;;;;;;0.68;0.40;;;25.00;34.50;;;;;;5069502;28;20020;-73
2022/05/08 04:33:07;;;;;;;0.60;0.35;;;24.90;35.50;;;;;;5067016;28;20032;-77
2022/05/08 04:35:34;;;;;;;10.00;7.85;;;24.60;36.30;;;;;;5070759;28;20482;-73
2022/05/08 04:38:01;;;;;;;2.42;1.42;;;24.70;35.50;;;;;;5067052;28;20040;-81
2022/05/08 04:40:29;;;;;;;3.63;0.43;;;24.70;35.80;;;;;;5060588;28;20068;-81
2022/05/08 04:42:57;;;;;;;0.75;0.20;;;24.30;35.10;;;;;;5064895;28;20075;-82
2022/05/08 04:45:24;;;;;;;1.35;0.50;;;24.30;36.50;;;;;;5069979;28;20526;-80
2022/05/08 04:47:51;;;;;;;0.68;0.20;;;24.60;36.30;;;;;;5066356;28;20051;-81
2022/05/08 04:50:21;;;;;;;0.57;0.30;;;24.80;37.20;;;;;;5064642;28;20098;-82
2022/05/08 04:52:48;;;;;;;1.52;0.30;;;24.90;36.40;;;;;;5070026;28;20052;-84
2022/05/08 04:55:15;;;;;;;0.73;0.50;;;24.90;36.40;;;;;;5054978;28;20085;-83
2022/05/08 04:57:43;;;;;;;0.60;0.40;;;25.00;34.50;;;;;;5071423;28;20462;-83
2022/05/08 05:00:10;;;;;;;0.50;0.20;;;25.20;36.70;;;;;;5067454;28;20035;-81
2022/05/08 05:02:38;;;;;;;1.83;0.22;;;25.20;35.60;;;;;;5065790;28;20033;-82
2022/05/08 05:05:06;;;;;;;1.10;0.32;;;25.20;35.50;;;;;;5067414;28;20111;-81
2022/05/08 05:07:33;;;;;;;1.50;0.43;;;25.30;36.40;;;;;;5073789;28;20028;-78
2022/05/08 05:10:00;;;;;;;0.98;0.40;;;25.50;34.70;;;;;;5076971;28;20068;-84
2022/05/08 05:12:27;;;;;;;0.47;0.30;;;25.40;34.90;;;;;;5072389;28;20052;-84
2022/05/08 05:14:55;;;;;;;0.63;0.20;;;25.20;35.10;;;;;;5065139;28;20024;-82
2022/05/08 05:17:22;;;;;;;0.70;0.20;;;24.70;35.50;;;;;;5067916;28;20036;-80
2022/05/08 05:19:49;;;;;;;3.03;0.28;;;24.60;36.00;;;;;;5084852;28;20044;-83
2022/05/08 05:22:16;;;;;;;0.57;0.32;;;24.60;36.20;;;;;;5070002;28;20025;-83
2022/05/08 05:24:43;;;;;;;1.08;0.20;;;24.70;36.30;;;;;;5055046;28;20043;-79
2022/05/08 05:27:11;;;;;;;0.52;0.20;;;24.70;35.00;;;;;;5071715;28;20039;-81
2022/05/08 05:29:38;;;;;;;0.90;0.30;;;24.90;36.30;;;;;;5070350;28;20585;-82
2022/05/08 05:32:05;;;;;;;0.57;0.10;;;25.30;35.20;;;;;;5068244;28;20074;-86
2022/05/08 05:34:33;;;;;;;1.45;0.38;;;25.40;35.10;;;;;;5066337;28;20020;-78
2022/05/08 05:37:03;;;;;;;2.58;0.30;;;25.40;34.80;;;;;;5069332;28;20476;-76
2022/05/08 05:39:30;;;;;;;1.00;0.43;;;25.10;35.50;;;;;;5061134;28;20143;-73
2022/05/08 05:41:57;;;;;;;2.25;0.30;;;25.00;36.00;;;;;;5066033;28;20040;-73
2022/05/08 05:44:26;;;;;;;16.77;14.15;;;24.90;35.60;;;;;;5060840;28;20033;-73
2022/05/08 05:49:40;;;;;;;1.30;0.50;;;24.70;36.70;;;;;;5055823;28;20132;-73
2022/05/08 05:52:08;;;;;;;0.35;0.20;;;24.50;35.70;;;;;;5071106;28;20028;-73
2022/05/08 05:54:35;;;;;;;1.48;0.30;;;24.50;36.10;;;;;;5067735;28;20071;-73
2022/05/08 05:57:02;;;;;;;1.30;0.30;;;24.40;36.90;;;;;;5072756;28;20040;-73
2022/05/08 05:59:30;;;;;;;1.58;0.52;;;24.50;35.80;;;;;;5074688;28;20111;-73
2022/05/08 06:01:57;;;;;;;1.77;0.55;;;24.30;36.20;;;;;;5066294;28;20024;-73
2022/05/08 06:04:24;;;;;;;1.65;0.70;;;24.20;36.10;;;;;;5068205;28;20032;-73
2022/05/08 06:06:52;;;;;;;1.00;0.30;;;23.80;36.90;;;;;;5071022;28;20062;-73
2022/05/08 06:09:20;;;;;;;1.70;0.20;;;23.60;39.00;;;;;;5068059;28;20032;-73
2022/05/08 06:11:48;;;;;;;0.85;0.40;;;23.50;38.50;;;;;;5074380;28;20485;-72
2022/05/08 06:14:15;;;;;;;2.67;0.60;;;23.40;38.20;;;;;;5071711;28;20036;-73
2022/05/08 06:16:43;;;;;;;3.53;0.70;;;23.60;38.50;;;;;;5065676;28;20020;-74
2022/05/08 06:19:11;;;;;;;0.80;0.40;;;23.40;38.90;;;;;;5072483;28;20048;-71
2022/05/08 06:21:38;;;;;;;2.22;0.70;;;22.90;39.70;;;;;;5066651;28;20024;-72
2022/05/08 06:24:05;;;;;;;2.97;1.00;;;22.50;41.00;;;;;;5072693;28;20489;-72
2022/05/08 06:26:33;;;;;;;6.07;0.80;;;22.20;41.80;;;;;;5064057;28;20021;-71
2022/05/08 06:29:00;;;;;;;4.88;1.10;;;21.90;41.30;;;;;;5069293;28;20127;-74
2022/05/08 06:31:28;;;;;;;5.05;2.05;;;21.90;41.50;;;;;;5066211;28;20044;-73
2022/05/08 06:33:55;;;;;;;1.88;0.90;;;22.10;41.20;;;;;;5059831;28;20406;-73
2022/05/08 06:36:22;;;;;;;3.13;0.70;;;21.60;41.50;;;;;;5067955;28;20020;-74
2022/05/08 06:38:50;;;;;;;1.50;0.52;;;21.10;42.80;;;;;;5069493;28;20399;-75
2022/05/08 06:41:17;;;;;;;5.15;1.77;;;20.60;43.60;;;;;;5058669;28;20029;-73
2022/05/08 06:43:44;;;;;;;5.15;4.00;;;20.20;44.60;;;;;;5074343;28;20489;-72
2022/05/08 06:46:12;;;;;;;3.80;1.58;;;19.90;45.70;;;;;;5066356;28;20037;-72
2022/05/08 06:48:39;;;;;;;13.82;11.30;;;19.70;46.30;;;;;;5066022;28;20032;-73
2022/05/08 06:51:06;;;;;;;2.53;1.83;;;19.50;47.10;;;;;;5068827;28;20115;-73
2022/05/08 06:53:34;;;;;;;10.82;1.13;;;19.30;47.30;;;;;;5074312;28;20517;-73
2022/05/08 06:56:01;;;;;;;2.28;0.80;;;19.20;46.80;;;;;;5062202;28;20033;-73
2022/05/08 06:58:28;;;;;;;2.45;1.00;;;19.00;47.80;;;;;;5069624;28;20061;-71
2022/05/08 07:03:41;;;;;;;10.18;5.68;;;18.70;49.50;;;;;;5060905;28;20031;-72
2022/05/08 07:06:08;;;;;;;4.38;1.20;;;18.40;50.20;;;;;;5064146;28;20522;-71
2022/05/08 07:08:36;;;;;;;5.70;1.00;;;18.10;50.80;;;;;;5065468;28;20024;-72
2022/05/08 07:11:03;;;;;;;3.50;0.95;;;17.90;51.40;;;;;;5063795;28;20035;-71
2022/05/08 07:13:33;;;;;;;2.22;1.30;;;17.70;52.10;;;;;;5073262;28;20028;-73
2022/05/08 07:16:00;;;;;;;2.40;1.10;;;17.50;53.30;;;;;;5069064;28;20187;-73
2022/05/08 07:18:29;;;;;;;4.75;2.78;;;17.40;53.40;;;;;;5058293;28;20036;-71
2022/05/08 07:20:57;;;;;;;9.82;2.97;;;17.20;54.30;;;;;;5062647;28;20025;-71
2022/05/08 07:23:24;;;;;;;3.60;1.77;;;17.00;54.60;;;;;;5064630;28;20032;-72
2022/05/08 07:25:51;;;;;;;3.15;1.00;;;16.90;55.30;;;;;;5071191;28;20460;-72
2022/05/08 07:28:18;;;;;;;3.85;1.80;;;16.70;55.70;;;;;;5061603;28;20040;-72
2022/05/08 07:30:46;;;;;;;4.38;1.05;;;16.60;56.30;;;;;;5069564;28;20043;-71
2022/05/08 07:33:16;;;;;;;3.65;1.30;;;16.40;57.00;;;;;;5069271;28;20025;-70
2022/05/08 07:38:29;;;;;;;25.30;17.95;;;16.00;58.70;;;;;;5061204;28;21538;-72
2022/05/08 07:40:57;;;;;;;21.90;14.00;;;15.90;59.40;;;;;;5060698;28;20021;-74
2022/05/08 07:43:25;;;;;;;6.05;2.45;;;15.80;59.50;;;;;;5048313;28;20423;-71
2022/05/08 07:45:53;;;;;;;5.15;1.40;;;15.80;60.00;;;;;;5068968;28;20025;-74
2022/05/08 07:48:23;;;;;;;3.63;1.50;;;15.70;60.10;;;;;;5058305;28;20070;-71
2022/05/08 07:50:51;;;;;;;1.95;1.00;;;15.70;60.70;;;;;;5071854;28;20111;-73
2022/05/08 07:53:18;;;;;;;2.22;0.80;;;15.50;60.80;;;;;;5064541;28;20036;-72
2022/05/08 07:55:51;;;;;;;1.75;0.80;;;15.50;61.30;;;;;;5061596;28;20033;-73
2022/05/08 07:58:20;;;;;;;3.03;1.05;;;15.40;61.90;;;;;;5065959;28;20032;-72
2022/05/08 08:00:49;;;;;;;3.08;1.13;;;15.30;62.40;;;;;;5062866;28;20120;-73
2022/05/08 08:03:19;;;;;;;2.10;0.80;;;15.10;63.50;;;;;;5055315;28;20071;-73
2022/05/08 08:05:48;;;;;;;2.40;0.90;;;15.00;64.00;;;;;;5062870;28;20021;-74
2022/05/08 08:08:17;;;;;;;2.97;1.40;;;14.80;64.50;;;;;;5055746;28;20108;-72
2022/05/08 08:10:45;;;;;;;5.65;2.13;;;14.80;65.00;;;;;;5067648;28;20063;-69
2022/05/08 08:13:12;;;;;;;5.00;2.33;;;14.70;65.30;;;;;;5074602;28;20027;-70
2022/05/08 08:15:44;;;;;;;8.50;5.03;;;14.70;65.60;;;;;;5060999;28;20111;-70
2022/05/08 08:18:12;;;;;;;3.85;2.28;;;14.80;65.70;;;;;;5063514;28;20078;-71
2022/05/08 08:20:40;;;;;;;27.10;18.08;;;14.80;65.40;;;;;;5062185;28;22580;-70
2022/05/08 08:23:07;;;;;;;16.88;11.88;;;14.80;66.50;;;;;;5056882;28;20059;-70
2022/05/08 08:25:34;;;;;;;8.10;4.55;;;14.80;66.30;;;;;;5051304;28;20040;-70
2022/05/08 08:28:02;;;;;;;7.18;4.50;;;14.80;66.50;;;;;;5059465;28;20486;-70
2022/05/08 08:30:29;;;;;;;6.63;5.00;;;14.80;66.10;;;;;;5060076;28;20178;-68
2022/05/08 08:32:56;;;;;;;7.40;4.03;;;14.90;66.30;;;;;;5052481;28;20044;-69
2022/05/08 08:35:24;;;;;;;17.33;11.85;;;14.80;66.10;;;;;;5058499;28;20082;-68
2022/05/08 08:37:51;;;;;;;5.20;2.95;;;14.90;66.20;;;;;;5058608;28;20021;-70
2022/05/08 08:40:18;;;;;;;;;;;14.90;66.30;;;;;;5057756;28;20383;-71
2022/05/08 08:42:45;;;;;;;5.38;2.30;;;15.00;66.00;;;;;;5057606;28;19909;-70
2022/05/08 08:48:05;;;;;;;5.25;3.17;;;15.10;64.80;;;;;;5053644;28;20082;-69
2022/05/08 08:50:33;;;;;;;8.40;4.88;;;15.30;64.00;;;;;;5056973;28;20052;-70
2022/05/08 08:53:02;;;;;;;13.65;8.18;;;15.30;63.90;;;;;;5060237;28;20029;-70
2022/05/08 08:55:31;;;;;;;9.48;4.78;;;15.30;63.90;;;;;;5051396;28;20348;-70
2022/05/08 08:57:58;;;;;;;7.88;5.13;;;15.30;64.30;;;;;;5034526;28;20025;-69
2022/05/08 09:00:25;;;;;;;5.57;2.42;;;15.30;64.40;;;;;;5049547;28;20039;-69
2022/05/08 09:02:54;;;;;;;4.20;2.20;;;15.30;65.10;;;;;;5058926;28;20487;-69
2022/05/08 09:05:25;;;;;;;5.15;2.38;;;15.20;64.30;;;;;;5062257;28;20446;-70
2022/05/08 09:07:53;;;;;;;5.15;1.95;;;15.20;64.60;;;;;;5053813;28;20024;-70
2022/05/08 09:10:22;;;;;;;5.93;1.70;;;15.20;65.10;;;;;;5059065;28;20040;-71
2022/05/08 09:12:55;;;;;;;3.88;1.75;;;15.10;65.00;;;;;;5044318;28;20074;-69
2022/05/08 09:15:24;;;;;;;6.90;2.97;;;15.10;65.30;;;;;;5066355;28;20039;-69
2022/05/08 09:18:10;;;;;;;5.70;3.20;;;15.00;66.00;;;;;;5047726;28;20078;-71
2022/05/08 09:20:47;;;;;;;6.50;4.05;;;14.80;66.10;;;;;;5065525;28;20036;-72
2022/05/08 09:23:40;;;;;;;5.68;3.50;;;14.70;66.80;;;;;;5065575;28;20040;-70
2022/05/08 09:26:08;;;;;;;7.22;3.88;;;14.60;67.20;;;;;;5053268;28;20025;-70
2022/05/08 09:28:46;;;;;;;8.80;5.15;;;14.50;68.40;;;;;;5057984;28;20379;-69
2022/05/08 09:31:15;;;;;;;;;;;14.40;69.00;;;;;;5061287;28;20037;-71
2022/05/08 09:33:53;;;;;;;20.38;13.27;;;14.40;69.50;;;;;;5058212;28;19951;-70
2022/05/08 09:36:24;;;;;;;32.72;21.42;;;14.50;69.40;;;;;;5061654;28;20025;-70
2022/05/08 09:38:52;;;;;;;26.58;16.80;;;14.50;68.80;;;;;;5066027;28;20067;-71
2022/05/08 09:41:42;;;;;;;25.77;15.65;;;14.40;68.70;;;;;;5061349;28;20056;-71
2022/05/08 09:44:17;;;;;;;15.80;10.95;;;14.40;69.20;;;;;;5059264;28;20032;-70
2022/05/08 09:46:45;;;;;;;18.63;10.57;;;14.20;70.00;;;;;;5069559;28;20647;-69
2022/05/08 09:49:17;;;;;;;12.88;8.05;;;14.10;70.80;;;;;;5059471;28;20050;-70
2022/05/08 09:51:45;;;;;;;9.88;6.13;;;14.00;71.70;;;;;;5057933;28;20029;-70
2022/05/08 09:54:16;;;;;;;5.72;2.90;;;13.80;72.20;;;;;;5060102;28;20046;-70
2022/05/08 09:56:47;;;;;;;6.00;2.72;;;13.80;74.10;;;;;;5063621;28;20032;-71
2022/05/08 09:59:19;;;;;;;5.47;3.33;;;13.70;74.30;;;;;;5062652;28;20044;-69
2022/05/08 10:01:47;;;;;;;3.55;2.22;;;13.70;74.50;;;;;;5056265;28;20029;-70
2022/05/08 10:04:14;;;;;;;6.82;3.28;;;13.40;74.60;;;;;;5061926;28;20024;-69
2022/05/08 10:06:42;;;;;;;9.35;3.60;;;13.30;75.10;;;;;;5050833;28;20055;-71
2022/05/08 10:14:41;;;;;;;27.55;13.18;;;13.80;73.80;;;;;;5056901;28;20044;-70
2022/05/08 10:17:09;;;;;;;11.20;5.85;;;13.80;74.10;;;;;;5071731;28;20025;-69
2022/05/08 10:19:36;;;;;;;9.82;3.13;;;13.60;74.50;;;;;;5066514;28;20028;-71
2022/05/08 10:22:06;;;;;;;;;;;13.60;74.90;;;;;;5062282;28;20475;-70
2022/05/08 10:24:35;;;;;;;11.18;3.47;;;13.50;74.90;;;;;;5064374;28;19915;-70
2022/05/08 10:27:20;;;;;;;7.50;3.30;;;13.30;75.10;;;;;;5073173;28;20058;-70
2022/05/08 10:29:53;;;;;;;8.73;3.28;;;13.10;75.50;;;;;;5065626;28;20032;-70
2022/05/08 10:32:33;;;;;;;11.45;3.15;;;12.90;76.30;;;;;;5062104;28;20021;-70
2022/05/08 10:35:20;;;;;;;7.47;2.88;;;12.80;76.80;;;;;;5056473;28;20032;-70
2022/05/08 10:37:50;;;;;;;5.65;3.42;;;12.70;77.30;;;;;;5062789;28;20398;-70
2022/05/08 10:40:24;;;;;;;8.50;3.83;;;12.50;77.60;;;;;;5063132;28;20052;-69
2022/05/08 10:43:25;;;;;;;6.95;3.90;;;12.40;77.90;;;;;;5063635;28;20067;-70
2022/05/08 10:45:52;;;;;;;11.13;3.75;;;12.40;78.10;;;;;;5061720;28;20497;-70
2022/05/08 10:48:21;;;;;;;7.40;3.80;;;12.30;77.90;;;;;;5062276;28;20033;-72
2022/05/08 10:50:53;;;;;;;11.70;4.18;;;12.20;78.30;;;;;;5056153;28;20433;-70
2022/05/08 10:53:28;;;;;;;9.23;3.88;;;12.10;78.60;;;;;;5060156;28;20473;-70
2022/05/08 10:56:06;;;;;;;10.63;3.15;;;11.90;79.00;;;;;;5061131;28;20036;-69
2022/05/08 10:58:34;;;;;;;11.18;3.80;;;11.80;79.40;;;;;;5065028;28;20102;-69
2022/05/08 11:01:03;;;;;;;14.60;3.58;;;11.80;79.50;;;;;;5068065;28;20494;-70
2022/05/08 11:03:31;;;;;;;6.95;3.13;;;11.70;79.30;;;;;;5065025;28;20083;-70
2022/05/08 11:05:58;;;;;;;6.68;2.70;;;11.70;79.20;;;;;;5066278;28;20020;-70
2022/05/08 11:08:31;;;;;;;7.43;2.83;;;11.70;79.20;;;;;;5058464;28;20025;-70
2022/05/08 11:11:07;;;;;;;5.68;2.60;;;11.60;79.40;;;;;;5060422;28;20035;-70
2022/05/08 11:13:38;;;;;;;5.85;2.38;;;11.60;79.10;;;;;;5039803;28;20071;-70
2022/05/08 11:16:05;;;;;;;8.13;2.28;;;11.60;79.30;;;;;;5061905;28;20028;-70
2022/05/08 11:18:33;;;;;;;9.75;2.25;;;11.50;79.00;;;;;;5069120;28;20067;-70
2022/05/08 11:21:03;;;;;;;;;;;11.50;79.60;;;;;;5063299;28;20029;-71
2022/05/08 11:23:34;;;;;;;5.75;2.40;;;11.40;79.80;;;;;;5058966;28;20247;-68
2022/05/08 11:26:11;;;;;;;7.80;2.35;;;11.40;80.30;;;;;;5064453;28;20020;-71
2022/05/08 11:29:01;;;;;;;4.80;2.30;;;11.40;80.40;;;;;;5061691;28;20028;-70
2022/05/08 11:31:28;;;;;;;7.55;2.00;;;11.40;80.60;;;;;;5069646;28;20438;-69
2022/05/08 11:36:44;;;;;;;6.28;2.42;;;11.40;80.80;;;;;;5071699;28;20026;-71
2022/05/08 11:39:16;;;;;;;7.03;2.55;;;11.40;80.90;;;;;;5061608;28;20110;-70
2022/05/08 11:41:51;;;;;;;8.88;2.15;;;11.40;81.00;;;;;;5061610;28;20086;-70
2022/05/08 11:44:21;;;;;;;8.00;2.35;;;11.50;80.90;;;;;;5059171;28;20164;-69
2022/05/08 11:46:58;;;;;;;8.25;2.53;;;11.40;81.10;;;;;;5066097;28;20386;-69
2022/05/08 11:49:25;;;;;;;7.68;2.63;;;11.30;81.50;;;;;;5062817;28;20044;-71
2022/05/08 11:52:14;;;;;;;;;;;11.20;82.00;;;;;;5059477;28;20127;-69
2022/05/08 11:54:42;;;;;;;7.25;2.03;;;11.10;82.70;;;;;;5066055;28;19912;-69
2022/05/08 11:57:16;;;;;;;;;;;10.90;83.30;;;;;;5062372;28;20051;-69
2022/05/08 11:59:47;;;;;;;4.15;2.38;;;10.80;84.00;;;;;;5071726;28;19904;-71
2022/05/08 12:02:14;;;;;;;8.93;2.33;;;10.80;84.60;;;;;;5059851;28;20037;-70
2022/05/08 12:05:02;;;;;;;5.30;2.38;;;10.80;84.50;;;;;;5061539;28;20116;-69
2022/05/08 12:07:41;;;;;;;7.68;2.28;;;10.80;84.40;;;;;;5065056;28;20039;-70
2022/05/08 12:10:12;;;;;;;4.57;2.40;;;10.80;84.70;;;;;;5059416;28;20028;-70
2022/05/08 12:12:40;;;;;;;11.77;2.60;;;10.60;85.00;;;;;;5058092;28;20052;-70
2022/05/08 12:15:07;;;;;;;5.75;1.85;;;10.60;85.40;;;;;;5056325;28;20077;-71
2022/05/08 12:17:43;;;;;;;3.80;1.70;;;10.50;85.50;;;;;;5057315;28;20138;-71
2022/05/08 12:20:27;;;;;;;2.40;1.02;;;10.50;86.20;;;;;;5056072;28;20048;-70
2022/05/08 12:23:10;;;;;;;6.78;1.50;;;10.50;86.20;;;;;;5063813;28;20029;-70
2022/05/08 12:25:41;;;;;;;2.63;1.10;;;10.40;86.20;;;;;;5063907;28;20127;-70
2022/05/08 12:28:13;;;;;;;3.33;1.10;;;10.40;86.50;;;;;;5063282;28;20027;-71
2022/05/08 12:30:40;;;;;;;3.38;0.98;;;10.40;86.70;;;;;;5061751;28;20036;-70
2022/05/08 12:33:06;;;;;;;;;;;10.40;86.70;;;;;;5068825;28;20486;-71
2022/05/08 12:35:36;;;;;;;4.68;1.10;;;10.40;86.30;;;;;;5067869;28;19927;-71
2022/05/08 12:38:03;;;;;;;3.65;1.40;;;10.40;87.10;;;;;;5060056;28;20036;-69
2022/05/08 12:40:32;;;;;;;6.57;1.08;;;10.40;86.80;;;;;;5055744;28;20123;-70
2022/05/08 12:43:03;;;;;;;4.75;0.93;;;10.50;86.80;;;;;;5062761;28;20029;-71
2022/05/08 12:45:30;;;;;;;4.85;1.20;;;10.50;86.40;;;;;;5066436;28;20048;-69
2022/05/08 12:47:57;;;;;;;;;;;10.50;86.30;;;;;;5059846;28;20059;-70
2022/05/08 12:50:33;;;;;;;5.97;1.15;;;10.60;86.00;;;;;;5062685;28;19923;-70
2022/05/08 12:53:00;;;;;;;;;;;10.60;86.00;;;;;;5058664;28;20033;-70
2022/05/08 12:55:31;;;;;;;2.25;0.80;;;10.50;86.40;;;;;;5049600;28;20282;-70
2022/05/08 13:00:44;;;;;;;4.10;1.00;;;10.90;85.20;;;;;;5057682;28;20453;-69
2022/05/08 13:03:14;;;;;;;1.75;0.93;;;11.00;84.60;;;;;;5045838;28;20040;-70
2022/05/08 13:05:41;;;;;;;3.78;0.73;;;11.00;84.30;;;;;;5054600;28;20048;-70
2022/05/08 13:08:09;;;;;;;3.40;1.00;;;10.90;84.80;;;;;;5060341;28;20132;-69
2022/05/08 13:10:35;;;;;;;;;;;10.80;85.20;;;;;;5063850;28;20040;-71
2022/05/08 13:13:03;;;;;;;2.88;0.85;;;10.80;85.50;;;;;;5063858;28;19908;-69
2022/05/08 13:15:29;;;;;;;;;;;10.70;86.70;;;;;;5064476;28;20020;-71
2022/05/08 13:17:57;;;;;;;3.95;0.90;;;10.80;87.20;;;;;;5063739;28;20008;-70
2022/05/08 13:20:26;;;;;;;;;;;10.80;87.10;;;;;;5059156;28;20091;-69
2022/05/08 13:22:55;;;;;;;4.30;0.80;;;11.00;86.60;;;;;;5060895;28;19947;-69
2022/05/08 13:25:23;;;;;;;3.83;1.05;;;11.10;86.40;;;;;;5069691;28;20107;-70
2022/05/08 13:27:49;;;;;;;;;;;11.20;86.30;;;;;;5061194;28;20024;-70
2022/05/08 13:30:17;;;;;;;3.13;1.80;;;11.30;86.10;;;;;;5064845;28;19920;-68